createdAt,value
2023-01-17T00:01:30.261Z,5.18
2023-01-17T00:04:15.164Z,6.53
2023-01-17T00:07:00.310Z,5.93
2023-01-17T00:09:45.168Z,6.50
2023-01-17T00:12:11.667Z,5.50
2023-01-17T00:14:38.145Z,5.20
2023-01-17T00:17:04.676Z,6.22
2023-01-17T00:19:49.805Z,6.70
2023-01-17T00:22:51.939Z,6.15
2023-01-17T00:25:39.900Z,6.93
2023-01-17T00:28:06.523Z,5.57
2023-01-17T00:30:33.679Z,6.90
2023-01-17T00:33:00.866Z,5.57
2023-01-17T00:35:29.578Z,5.97
2023-01-17T00:38:11.052Z,5.27
2023-01-17T00:40:39.377Z,5.65
2023-01-17T00:43:25.871Z,6.15
2023-01-17T00:46:11.218Z,6.00
2023-01-17T00:48:57.427Z,5.80
2023-01-17T00:51:43.298Z,4.87
2023-01-17T00:54:28.666Z,5.20
2023-01-17T00:57:14.438Z,6.03
2023-01-17T00:59:59.279Z,4.75
2023-01-17T01:02:45.273Z,5.30
2023-01-17T01:05:31.252Z,5.77
2023-01-17T01:08:16.562Z,5.50
2023-01-17T01:11:03.097Z,5.47
2023-01-17T01:13:49.345Z,5.90
2023-01-17T01:16:35.283Z,6.10
2023-01-17T01:19:21.241Z,4.93
2023-01-17T01:22:05.957Z,6.15
2023-01-17T01:24:51.485Z,6.72
2023-01-17T01:27:36.758Z,6.10
2023-01-17T01:30:23.280Z,6.68
2023-01-17T01:33:08.065Z,5.93
2023-01-17T01:35:36.516Z,5.30
2023-01-17T01:38:03.609Z,6.32
2023-01-17T01:40:30.141Z,6.18
2023-01-17T01:42:59.548Z,5.65
2023-01-17T01:45:29.023Z,6.20
2023-01-17T01:48:01.834Z,5.28
2023-01-17T01:50:30.533Z,6.18
2023-01-17T01:53:00.799Z,5.70
2023-01-17T01:55:33.264Z,6.75
2023-01-17T01:58:04.300Z,5.83
2023-01-17T02:00:35.224Z,5.97
2023-01-17T02:03:07.921Z,6.63
2023-01-17T02:05:35.415Z,6.57
2023-01-17T02:08:07.699Z,6.43
2023-01-17T02:10:35.651Z,6.33
2023-01-17T02:13:02.805Z,6.22
2023-01-17T02:15:36.126Z,6.45
2023-01-17T02:18:17.712Z,5.57
2023-01-17T02:21:05.480Z,6.95
2023-01-17T02:23:58.106Z,6.87
2023-01-17T02:26:41.130Z,5.78
2023-01-17T02:29:26.482Z,6.55
2023-01-17T02:32:31.372Z,6.72
2023-01-17T02:35:25.608Z,6.25
2023-01-17T02:38:31.186Z,6.70
2023-01-17T02:41:07.628Z,7.20
2023-01-17T02:43:35.962Z,7.25
2023-01-17T02:46:03.480Z,5.88
2023-01-17T02:48:33.236Z,7.43
2023-01-17T02:51:27.549Z,5.53
2023-01-17T02:54:20.585Z,6.43
2023-01-17T02:57:23.662Z,7.13
2023-01-17T03:00:37.877Z,6.75
2023-01-17T03:03:10.302Z,7.40
2023-01-17T03:05:43.485Z,7.03
2023-01-17T03:08:11.087Z,6.97
2023-01-17T03:10:39.055Z,6.78
2023-01-17T03:13:05.654Z,7.22
2023-01-17T03:15:32.177Z,7.05
2023-01-17T03:18:02.724Z,6.67
2023-01-17T03:20:29.241Z,6.43
2023-01-17T03:22:55.772Z,7.20
2023-01-17T03:25:22.363Z,5.93
2023-01-17T03:27:48.943Z,7.22
2023-01-17T03:30:16.075Z,7.33
2023-01-17T03:32:42.580Z,7.18
2023-01-17T03:35:09.287Z,7.13
2023-01-17T03:37:35.766Z,6.95
2023-01-17T03:40:02.238Z,6.85
2023-01-17T03:42:28.699Z,6.10
2023-01-17T03:44:55.148Z,6.70
2023-01-17T03:47:21.625Z,7.78
2023-01-17T03:49:48.100Z,5.97
2023-01-17T03:52:14.623Z,6.65
2023-01-17T03:54:41.063Z,6.27
2023-01-17T03:57:08.539Z,6.40
2023-01-17T03:59:35.002Z,6.85
2023-01-17T04:02:01.706Z,6.53
2023-01-17T04:04:28.190Z,6.85
2023-01-17T04:06:54.729Z,5.73
2023-01-17T04:09:21.341Z,6.25
2023-01-17T04:11:50.855Z,6.38
2023-01-17T04:14:17.702Z,5.65
2023-01-17T04:16:44.387Z,6.15
2023-01-17T04:19:13.559Z,6.33
2023-01-17T04:21:40.022Z,6.70
2023-01-17T04:24:06.846Z,7.88
2023-01-17T04:26:33.299Z,6.45
2023-01-17T04:28:59.804Z,7.07
2023-01-17T04:31:26.271Z,6.53
2023-01-17T04:33:52.868Z,7.05
2023-01-17T04:36:19.382Z,7.45
2023-01-17T04:38:45.982Z,7.05
2023-01-17T04:41:12.459Z,7.40
2023-01-17T04:43:38.996Z,6.00
2023-01-17T04:46:09.993Z,6.60
2023-01-17T04:48:37.190Z,7.15
2023-01-17T04:51:05.525Z,6.78
2023-01-17T04:53:32.362Z,8.20
2023-01-17T04:55:58.954Z,7.43
2023-01-17T04:58:25.400Z,6.75
2023-01-17T05:00:51.987Z,8.70
2023-01-17T05:03:20.383Z,8.30
2023-01-17T05:05:47.397Z,7.68
2023-01-17T05:08:14.579Z,7.17
2023-01-17T05:10:41.140Z,6.65
2023-01-17T05:13:07.579Z,7.78
2023-01-17T05:15:34.221Z,7.97
2023-01-17T05:18:00.701Z,7.85
2023-01-17T05:20:27.619Z,6.57
2023-01-17T05:22:58.348Z,8.50
2023-01-17T05:25:26.595Z,8.75
2023-01-17T05:27:53.599Z,8.73
2023-01-17T05:30:20.592Z,8.20
2023-01-17T05:32:51.795Z,9.30
2023-01-17T05:35:20.246Z,8.70
2023-01-17T05:37:49.190Z,8.82
2023-01-17T05:40:27.997Z,9.20
2023-01-17T05:42:56.667Z,8.43
2023-01-17T05:45:26.331Z,8.47
2023-01-17T05:47:54.943Z,8.57
2023-01-17T05:50:27.807Z,8.93
2023-01-17T05:52:56.756Z,8.07
2023-01-17T05:55:23.977Z,8.10
2023-01-17T05:57:50.476Z,8.07
2023-01-17T06:00:18.061Z,7.13
2023-01-17T06:02:45.424Z,7.78
2023-01-17T06:05:12.346Z,7.75
2023-01-17T06:07:39.418Z,8.25
2023-01-17T06:10:06.561Z,7.97
2023-01-17T06:12:33.045Z,7.60
2023-01-17T06:14:59.499Z,7.80
2023-01-17T06:17:25.934Z,6.90
2023-01-17T06:19:52.441Z,7.35
2023-01-17T06:22:18.958Z,8.23
2023-01-17T06:24:45.414Z,8.35
2023-01-17T06:27:11.894Z,7.65
2023-01-17T06:29:38.336Z,6.70
2023-01-17T06:32:05.084Z,8.38
2023-01-17T06:34:31.582Z,6.43
2023-01-17T06:36:58.060Z,8.23
2023-01-17T06:39:24.585Z,7.28
2023-01-17T06:41:51.077Z,7.80
2023-01-17T06:44:17.575Z,8.60
2023-01-17T06:46:45.069Z,7.50
2023-01-17T06:49:11.633Z,7.55
2023-01-17T06:51:38.111Z,8.10
2023-01-17T06:54:04.823Z,7.90
2023-01-17T06:56:32.938Z,8.40
2023-01-17T06:58:59.391Z,7.93
2023-01-17T07:01:26.144Z,8.25
2023-01-17T07:03:52.855Z,8.98
2023-01-17T07:06:19.649Z,6.55
2023-01-17T07:08:47.467Z,7.78
2023-01-17T07:11:13.961Z,7.00
2023-01-17T07:13:40.807Z,8.07
2023-01-17T07:16:08.790Z,8.77
2023-01-17T07:18:35.439Z,8.13
2023-01-17T07:21:01.885Z,8.75
2023-01-17T07:23:28.365Z,8.53
2023-01-17T07:25:59.299Z,7.68
2023-01-17T07:28:28.215Z,8.90
2023-01-17T07:30:54.949Z,9.07
2023-01-17T07:33:21.827Z,10.07
2023-01-17T07:35:48.256Z,9.07
2023-01-17T07:38:17.545Z,9.02
2023-01-17T07:40:44.964Z,9.10
2023-01-17T07:43:14.825Z,8.07
2023-01-17T07:45:45.756Z,9.27
2023-01-17T07:48:13.069Z,7.97
2023-01-17T07:50:39.706Z,7.95
2023-01-17T07:53:06.252Z,9.68
2023-01-17T07:55:33.268Z,10.50
2023-01-17T07:58:02.281Z,9.63
2023-01-17T08:00:29.521Z,9.63
2023-01-17T08:02:57.931Z,8.05
2023-01-17T08:05:24.860Z,9.68
2023-01-17T08:07:51.640Z,9.65
2023-01-17T08:10:18.230Z,9.25
2023-01-17T08:12:48.848Z,8.30
2023-01-17T08:15:18.866Z,7.20
2023-01-17T08:17:47.109Z,8.63
2023-01-17T08:20:14.115Z,7.63
2023-01-17T08:22:40.678Z,8.77
2023-01-17T08:25:07.817Z,8.43
2023-01-17T08:27:36.171Z,8.63
2023-01-17T08:30:02.920Z,9.02
2023-01-17T08:32:29.404Z,8.60
2023-01-17T08:34:57.140Z,8.43
2023-01-17T08:37:23.867Z,8.73
2023-01-17T08:39:50.473Z,8.77
2023-01-17T08:42:17.307Z,8.88
2023-01-17T08:44:44.088Z,9.27
2023-01-17T08:47:10.784Z,10.25
2023-01-17T08:49:37.272Z,10.57
2023-01-17T08:52:05.194Z,10.73
2023-01-17T08:54:31.848Z,11.68
2023-01-17T08:56:58.400Z,13.05
2023-01-17T08:59:24.915Z,14.85
2023-01-17T09:01:52.549Z,14.13
2023-01-17T09:04:19.289Z,15.52
2023-01-17T09:06:48.119Z,14.63
2023-01-17T09:09:16.740Z,13.75
2023-01-17T09:11:43.315Z,14.68
2023-01-17T09:14:12.425Z,14.73
2023-01-17T09:16:38.976Z,15.13
2023-01-17T09:19:05.487Z,15.18
2023-01-17T09:21:32.041Z,13.65
2023-01-17T09:23:58.523Z,15.02
2023-01-17T09:26:28.236Z,15.10
2023-01-17T09:28:55.186Z,13.90
2023-01-17T09:31:23.608Z,14.30
2023-01-17T09:33:51.879Z,12.73
2023-01-17T09:36:18.394Z,13.90
2023-01-17T09:38:45.070Z,12.67
2023-01-17T09:41:17.687Z,14.57
2023-01-17T09:43:53.709Z,14.07
2023-01-17T09:46:25.607Z,12.90
2023-01-17T09:49:01.920Z,13.60
2023-01-17T09:51:28.459Z,12.97
2023-01-17T09:53:55.374Z,14.15
2023-01-17T09:56:31.592Z,13.48
2023-01-17T09:59:20.875Z,13.18
2023-01-17T10:01:55.823Z,13.02
2023-01-17T10:04:45.341Z,12.93
2023-01-17T10:07:32.442Z,12.43
2023-01-17T10:10:20.115Z,13.52
2023-01-17T10:13:12.806Z,14.77
2023-01-17T10:15:51.881Z,13.95
2023-01-17T10:18:42.940Z,13.07
2023-01-17T10:21:14.294Z,13.82
2023-01-17T10:24:03.776Z,13.25
2023-01-17T10:26:32.473Z,13.77
2023-01-17T10:29:03.351Z,12.85
2023-01-17T10:31:34.074Z,13.07
2023-01-17T10:34:24.783Z,13.07
2023-01-17T10:37:03.135Z,13.05
2023-01-17T10:39:30.852Z,12.75
2023-01-17T10:42:06.635Z,13.45
2023-01-17T10:44:43.883Z,11.70
2023-01-17T10:47:10.311Z,10.43
2023-01-17T10:49:46.886Z,12.77
2023-01-17T10:52:45.169Z,11.38
2023-01-17T10:55:21.519Z,11.57
2023-01-17T10:57:49.742Z,11.20
2023-01-17T11:00:19.453Z,11.45
2023-01-17T11:02:50.568Z,12.77
2023-01-17T11:05:29.196Z,11.23
2023-01-17T11:08:03.280Z,12.05
2023-01-17T11:10:40.007Z,11.67
2023-01-17T11:13:44.830Z,11.90
2023-01-17T11:16:21.176Z,12.27
2023-01-17T11:19:04.488Z,11.23
2023-01-17T11:21:32.133Z,11.02
2023-01-17T11:24:10.591Z,10.43
2023-01-17T11:26:45.581Z,10.68
2023-01-17T11:29:26.995Z,10.32
2023-01-17T11:31:56.242Z,10.02
2023-01-17T11:34:29.430Z,10.45
2023-01-17T11:37:19.398Z,9.47
2023-01-17T11:39:49.708Z,10.55
2023-01-17T11:42:34.249Z,11.35
2023-01-17T11:45:28.975Z,9.27
2023-01-17T11:48:12.562Z,10.50
2023-01-17T11:50:54.815Z,9.53
2023-01-17T11:53:34.848Z,10.15
2023-01-17T11:56:18.391Z,10.02
2023-01-17T11:58:45.927Z,9.98
2023-01-17T12:01:43.033Z,8.38
2023-01-17T12:04:09.490Z,7.97
2023-01-17T12:06:57.708Z,8.63
2023-01-17T12:09:43.444Z,8.80
2023-01-17T12:12:56.121Z,8.63
2023-01-17T12:15:44.861Z,7.57
2023-01-17T12:18:17.363Z,8.97
2023-01-17T12:20:53.014Z,7.60
2023-01-17T12:23:40.498Z,8.38
2023-01-17T12:26:19.778Z,8.48
2023-01-17T12:28:52.296Z,7.45
2023-01-17T12:31:49.884Z,7.73
2023-01-17T12:34:23.786Z,8.00
2023-01-17T12:37:00.352Z,7.97
2023-01-17T12:39:33.121Z,6.88
2023-01-17T12:42:05.789Z,6.85
2023-01-17T12:45:05.631Z,7.23
2023-01-17T12:47:37.820Z,7.97
2023-01-17T12:50:14.777Z,7.65
2023-01-17T12:53:06.001Z,7.65
2023-01-17T12:55:57.888Z,7.32
2023-01-17T12:58:34.884Z,5.57
2023-01-17T13:01:24.498Z,7.32
2023-01-17T13:04:19.917Z,6.45
2023-01-17T13:06:52.059Z,6.63
2023-01-17T13:09:22.520Z,6.35
2023-01-17T13:11:57.583Z,7.13
2023-01-17T13:14:24.326Z,7.13
2023-01-17T13:17:21.477Z,7.22
2023-01-17T13:20:01.062Z,6.15
2023-01-17T13:22:28.850Z,7.03
2023-01-17T13:25:23.231Z,6.90
2023-01-17T13:28:01.733Z,6.85
2023-01-17T13:30:34.554Z,7.40
2023-01-17T13:33:34.389Z,6.53
2023-01-17T13:36:29.980Z,5.47
2023-01-17T13:39:21.258Z,5.80
2023-01-17T13:41:54.948Z,5.90
2023-01-17T13:44:26.077Z,6.40
2023-01-17T13:46:58.364Z,5.45
2023-01-17T13:49:39.932Z,5.53
2023-01-17T13:52:10.883Z,5.47
2023-01-17T13:55:05.469Z,5.15
2023-01-17T13:57:42.143Z,6.10
2023-01-17T14:00:21.391Z,5.80
2023-01-17T14:02:49.985Z,5.00
2023-01-17T14:05:39.539Z,5.40
2023-01-17T14:08:17.231Z,5.13
2023-01-17T14:10:47.884Z,6.00
2023-01-17T14:13:35.662Z,5.40
2023-01-17T14:16:22.744Z,4.88
2023-01-17T14:18:49.984Z,4.60
2023-01-17T14:21:29.015Z,5.00
2023-01-17T14:24:10.534Z,4.60
2023-01-17T14:26:43.620Z,4.45
2023-01-17T14:29:47.840Z,5.20
2023-01-17T14:32:23.751Z,4.17
2023-01-17T14:34:52.880Z,4.60
2023-01-17T14:37:30.112Z,4.35
2023-01-17T14:39:56.670Z,4.35
2023-01-17T14:42:26.596Z,4.63
2023-01-17T14:45:00.415Z,4.43
2023-01-17T14:47:31.698Z,4.00
2023-01-17T14:50:11.966Z,4.30
2023-01-17T14:52:38.487Z,4.43
2023-01-17T14:55:15.538Z,3.90
2023-01-17T14:57:42.886Z,3.97
2023-01-17T15:00:13.681Z,3.53
2023-01-17T15:02:43.206Z,4.00
2023-01-17T15:05:14.184Z,3.50
2023-01-17T15:07:43.084Z,3.13
2023-01-17T15:10:15.793Z,3.33
2023-01-17T15:12:46.655Z,3.47
2023-01-17T15:15:35.436Z,3.55
2023-01-17T15:18:13.994Z,3.72
2023-01-17T15:20:49.651Z,3.30
2023-01-17T15:23:20.481Z,3.43
2023-01-17T15:25:49.380Z,3.20
2023-01-17T15:28:16.641Z,3.28
2023-01-17T15:31:01.798Z,3.10
2023-01-17T15:33:31.852Z,3.50
2023-01-17T15:36:04.559Z,3.67
2023-01-17T15:38:38.580Z,4.15
2023-01-17T15:41:13.656Z,3.85
2023-01-17T15:43:41.971Z,3.65
2023-01-17T15:46:24.257Z,3.92
2023-01-17T15:48:51.802Z,4.00
2023-01-17T15:51:33.417Z,4.65
2023-01-17T15:54:00.097Z,4.50
2023-01-17T15:56:33.181Z,5.50
2023-01-17T15:59:27.214Z,5.10
2023-01-17T16:01:58.142Z,5.43
2023-01-17T16:04:37.074Z,5.55
2023-01-17T16:07:27.557Z,5.50
2023-01-17T16:10:02.747Z,6.95
2023-01-17T16:12:29.234Z,6.85
2023-01-17T16:15:11.192Z,5.87
2023-01-17T16:17:42.569Z,6.75
2023-01-17T16:20:15.843Z,7.35
2023-01-17T16:22:43.903Z,6.85
2023-01-17T16:25:22.133Z,7.18
2023-01-17T16:27:49.719Z,6.73
2023-01-17T16:30:18.575Z,8.45
2023-01-17T16:32:48.364Z,9.20
2023-01-17T16:35:26.050Z,9.02
2023-01-17T16:37:56.723Z,9.85
2023-01-17T16:40:25.875Z,9.50
2023-01-17T16:42:52.346Z,12.43
2023-01-17T16:45:19.014Z,27.60
2023-01-17T16:47:47.434Z,31.17
2023-01-17T16:50:17.524Z,32.28
2023-01-17T16:52:44.203Z,36.27
2023-01-17T16:55:14.423Z,35.83
2023-01-17T16:57:40.970Z,62.72
2023-01-17T17:00:09.523Z,45.63
2023-01-17T17:02:36.151Z,63.28
2023-01-17T17:05:02.760Z,41.00
2023-01-17T17:07:29.287Z,34.22
2023-01-17T17:09:55.774Z,29.40
2023-01-17T17:12:22.418Z,26.13
2023-01-17T17:14:48.903Z,27.98
2023-01-17T17:17:15.581Z,25.33
2023-01-17T17:19:42.154Z,24.77
2023-01-17T17:22:08.600Z,25.65
2023-01-17T17:24:35.093Z,24.67
2023-01-17T17:27:01.550Z,20.50
2023-01-17T17:29:28.130Z,33.67
2023-01-17T17:31:54.739Z,32.38
2023-01-17T17:34:23.155Z,27.20
2023-01-17T17:36:51.610Z,25.80
2023-01-17T17:39:18.086Z,24.08
2023-01-17T17:41:45.850Z,21.73
2023-01-17T17:44:13.878Z,19.73
2023-01-17T17:46:42.091Z,17.63
2023-01-17T17:49:09.441Z,18.50
2023-01-17T17:51:40.068Z,18.20
2023-01-17T17:54:12.201Z,18.53
2023-01-17T17:56:39.084Z,20.65
2023-01-17T17:59:08.887Z,21.40
2023-01-17T18:01:38.278Z,18.27
2023-01-17T18:04:07.376Z,19.45
2023-01-17T18:06:35.104Z,21.13
2023-01-17T18:09:03.117Z,19.95
2023-01-17T18:11:30.466Z,29.45
2023-01-17T18:14:00.090Z,29.73
2023-01-17T18:16:35.525Z,25.40
2023-01-17T18:19:04.416Z,26.97
2023-01-17T18:21:33.669Z,25.02
2023-01-17T18:24:05.891Z,26.15
2023-01-17T18:26:34.690Z,29.40
2023-01-17T18:29:02.382Z,29.83
2023-01-17T18:31:30.125Z,27.30
2023-01-17T18:33:59.511Z,25.02
2023-01-17T18:36:28.657Z,24.05
2023-01-17T18:38:55.747Z,24.17
2023-01-17T18:41:27.617Z,22.67
2023-01-17T18:43:56.055Z,23.90
2023-01-17T18:46:23.776Z,21.95
2023-01-17T18:48:50.740Z,23.77
2023-01-17T18:51:19.249Z,21.88
2023-01-17T18:53:46.424Z,22.85
2023-01-17T18:56:15.751Z,23.07
2023-01-17T18:58:44.796Z,26.50
2023-01-17T19:01:14.370Z,25.50
2023-01-17T19:03:44.863Z,24.00
2023-01-17T19:06:17.068Z,32.25
2023-01-17T19:08:43.807Z,22.77
2023-01-17T19:11:11.486Z,23.10
2023-01-17T19:13:39.364Z,22.42
2023-01-17T19:16:08.288Z,19.10
2023-01-17T19:18:35.352Z,20.90
2023-01-17T19:21:10.609Z,18.97
2023-01-17T19:23:37.585Z,21.95
2023-01-17T19:26:06.498Z,22.80
2023-01-17T19:28:35.650Z,18.48
2023-01-17T19:31:07.745Z,14.63
2023-01-17T19:33:36.210Z,17.37
2023-01-17T19:36:05.702Z,16.67
2023-01-17T19:38:34.221Z,16.75
2023-01-17T19:41:12.457Z,15.23
2023-01-17T19:43:40.650Z,14.15
2023-01-17T19:46:08.236Z,14.07
2023-01-17T19:48:36.769Z,13.73
2023-01-17T19:51:08.943Z,14.82
2023-01-17T19:53:37.228Z,13.75
2023-01-17T19:56:11.421Z,13.05
2023-01-17T19:58:38.810Z,12.40
2023-01-17T20:01:07.734Z,13.63
2023-01-17T20:03:34.579Z,13.43
2023-01-17T20:06:01.230Z,12.73
2023-01-17T20:08:27.778Z,13.85
2023-01-17T20:10:54.336Z,13.40
2023-01-17T20:13:20.785Z,13.45
2023-01-17T20:15:47.226Z,12.95
2023-01-17T20:18:13.868Z,12.32
2023-01-17T20:20:56.311Z,12.35
2023-01-17T20:23:23.315Z,13.70
2023-01-17T20:25:59.140Z,13.93
2023-01-17T20:28:26.871Z,16.95
2023-01-17T20:30:54.678Z,14.48
2023-01-17T20:33:22.083Z,28.40
2023-01-17T20:35:58.143Z,20.67
2023-01-17T20:38:45.763Z,19.90
2023-01-17T20:41:33.794Z,28.85
2023-01-17T20:44:02.362Z,21.23
2023-01-17T20:46:35.504Z,20.77
2023-01-17T20:49:05.441Z,20.30
2023-01-17T20:51:34.482Z,18.27
2023-01-17T20:54:03.375Z,20.73
2023-01-17T20:56:34.518Z,18.23
2023-01-17T20:59:03.952Z,20.73
2023-01-17T21:01:30.707Z,18.37
2023-01-17T21:03:57.480Z,18.88
2023-01-17T21:06:24.546Z,19.95
2023-01-17T21:08:51.638Z,16.83
2023-01-17T21:11:21.370Z,17.33
2023-01-17T21:13:51.427Z,20.17
2023-01-17T21:16:20.356Z,23.92
2023-01-17T21:18:48.134Z,29.15
2023-01-17T21:21:23.407Z,31.00
2023-01-17T21:23:51.574Z,25.02
2023-01-17T21:26:19.348Z,21.37
2023-01-17T21:28:47.595Z,20.80
2023-01-17T21:31:26.315Z,29.35
2023-01-17T21:33:55.883Z,24.13
2023-01-17T21:36:25.541Z,21.05
2023-01-17T21:38:54.718Z,19.70
2023-01-17T21:41:24.446Z,20.80
2023-01-17T21:43:58.394Z,22.15
2023-01-17T21:46:25.256Z,24.90
2023-01-17T21:48:51.914Z,26.65
2023-01-17T21:51:19.677Z,22.20
2023-01-17T21:53:46.208Z,27.45
2023-01-17T21:56:32.597Z,34.40
2023-01-17T21:58:59.749Z,24.88
2023-01-17T22:01:32.991Z,24.98
2023-01-17T22:04:02.772Z,25.73
2023-01-17T22:06:31.965Z,30.80
2023-01-17T22:08:59.181Z,30.60
2023-01-17T22:11:27.358Z,28.65
2023-01-17T22:13:54.175Z,32.30
2023-01-17T22:16:26.001Z,34.83
2023-01-17T22:18:52.681Z,35.03
2023-01-17T22:21:22.199Z,29.65
2023-01-17T22:23:54.304Z,28.50
2023-01-17T22:26:23.166Z,24.27
2023-01-17T22:28:49.977Z,23.03
2023-01-17T22:31:17.611Z,22.02
2023-01-17T22:33:47.388Z,20.50
2023-01-17T22:36:14.920Z,19.48
2023-01-17T22:38:42.893Z,20.48
2023-01-17T22:41:13.106Z,20.03
2023-01-17T22:43:41.944Z,23.85
2023-01-17T22:46:10.604Z,24.88
2023-01-17T22:48:38.560Z,21.35
2023-01-17T22:51:07.371Z,19.77
2023-01-17T22:53:33.990Z,25.10
2023-01-17T22:56:03.054Z,23.23
2023-01-17T22:58:30.680Z,23.77
2023-01-17T23:01:10.995Z,21.60
2023-01-17T23:03:38.498Z,19.73
2023-01-17T23:06:12.400Z,17.10
2023-01-17T23:08:41.610Z,16.05
2023-01-17T23:11:43.212Z,17.33
2023-01-17T23:14:12.792Z,15.75
2023-01-17T23:17:03.902Z,17.85
2023-01-17T23:19:42.277Z,16.93
2023-01-17T23:22:21.284Z,16.10
2023-01-17T23:24:56.548Z,20.27
2023-01-17T23:27:55.573Z,18.42
2023-01-17T23:30:27.968Z,20.00
2023-01-17T23:32:57.649Z,20.73
2023-01-17T23:35:27.323Z,19.85
2023-01-17T23:38:12.858Z,20.58
2023-01-17T23:40:40.357Z,19.70
2023-01-17T23:43:25.195Z,19.00
2023-01-17T23:45:53.789Z,18.10
2023-01-17T23:48:23.606Z,19.00
2023-01-17T23:50:50.767Z,19.63
2023-01-17T23:53:23.804Z,18.48
2023-01-17T23:55:53.553Z,17.67
2023-01-17T23:58:23.205Z,17.77
